createdAt,value
2023-04-21T00:04:01.250Z,35.20
2023-04-21T00:14:09.478Z,31.93
2023-04-21T00:19:14.039Z,35.83
2023-04-21T00:24:16.593Z,32.83
2023-04-21T00:29:20.793Z,35.55
2023-04-21T00:34:23.656Z,33.45
2023-04-21T00:39:26.469Z,34.77
2023-04-21T00:44:30.496Z,31.13
2023-04-21T00:49:33.614Z,33.22
2023-04-21T00:54:36.705Z,28.02
2023-04-21T00:59:40.959Z,29.95
2023-04-21T01:04:43.912Z,33.40
2023-04-21T01:09:46.579Z,31.50
2023-04-21T01:14:50.772Z,35.30
2023-04-21T01:19:57.428Z,31.05
2023-04-21T01:25:01.369Z,34.22
2023-04-21T01:30:05.816Z,30.95
2023-04-21T01:35:09.197Z,31.20
2023-04-21T01:40:13.744Z,33.58
2023-04-21T01:45:16.332Z,34.78
2023-04-21T01:50:19.251Z,31.20
2023-04-21T01:55:23.704Z,33.88
2023-04-21T02:00:26.555Z,32.92
2023-04-21T02:05:29.224Z,32.63
2023-04-21T02:10:34.691Z,32.23
2023-04-21T02:15:38.540Z,34.20
2023-04-21T02:20:41.265Z,30.52
2023-04-21T02:25:45.197Z,32.37
2023-04-21T02:30:47.815Z,30.40
2023-04-21T02:35:50.404Z,32.40
2023-04-21T02:40:54.412Z,33.57
2023-04-21T02:45:57.018Z,30.73
2023-04-21T02:50:59.781Z,32.70
2023-04-21T02:56:05.042Z,28.92
2023-04-21T03:01:07.759Z,29.08
2023-04-21T03:06:10.445Z,25.07
2023-04-21T03:11:14.658Z,30.90
2023-04-21T03:16:19.759Z,32.97
2023-04-21T03:21:22.530Z,30.73
2023-04-21T03:26:27.488Z,29.40
2023-04-21T03:31:30.160Z,33.90
2023-04-21T03:36:32.841Z,38.20
2023-04-21T03:41:36.900Z,38.53
2023-04-21T03:46:39.519Z,40.08
2023-04-21T03:51:42.109Z,39.73
2023-04-21T03:56:46.060Z,41.43
2023-04-21T04:01:48.729Z,42.80
2023-04-21T04:06:51.673Z,40.67
2023-04-21T04:11:56.072Z,41.22
2023-04-21T04:16:59.768Z,40.45
2023-04-21T04:22:02.706Z,40.20
2023-04-21T04:27:07.017Z,34.95
2023-04-21T04:32:11.033Z,35.90
2023-04-21T04:37:13.961Z,34.92
2023-04-21T04:42:20.294Z,41.30
2023-04-21T04:47:23.066Z,35.00
2023-04-21T04:52:26.268Z,39.03
2023-04-21T04:57:31.957Z,32.53
2023-04-21T05:02:34.908Z,35.42
2023-04-21T05:07:38.165Z,36.33
2023-04-21T05:12:42.133Z,33.88
2023-04-21T05:17:45.858Z,33.05
2023-04-21T05:22:48.582Z,32.20
2023-04-21T05:27:53.243Z,29.57
2023-04-21T05:32:55.888Z,31.60
2023-04-21T05:37:58.514Z,30.63
2023-04-21T05:43:02.461Z,31.83
2023-04-21T05:48:05.900Z,30.73
2023-04-21T05:58:12.815Z,32.08
2023-04-21T06:03:16.694Z,31.88
2023-04-21T06:08:19.382Z,33.90
2023-04-21T06:13:23.582Z,31.43
2023-04-21T06:18:28.860Z,36.95
2023-04-21T06:23:31.519Z,35.42
2023-04-21T06:28:36.768Z,39.90
2023-04-21T06:33:39.632Z,36.08
2023-04-21T06:38:43.312Z,36.03
2023-04-21T06:43:47.478Z,31.75
2023-04-21T06:48:50.155Z,34.10
2023-04-21T06:53:52.780Z,35.20
2023-04-21T06:58:57.532Z,32.87
2023-04-21T07:04:00.393Z,28.30
2023-04-21T07:09:03.080Z,29.35
2023-04-21T07:14:07.097Z,30.27
2023-04-21T07:19:10.110Z,28.50
2023-04-21T07:24:13.307Z,31.48
2023-04-21T07:29:18.277Z,28.80
2023-04-21T07:34:21.133Z,32.10
2023-04-21T07:39:26.979Z,28.80
2023-04-21T07:44:31.966Z,25.88
2023-04-21T07:49:35.186Z,25.05
2023-04-21T07:54:37.809Z,23.17
2023-04-21T07:59:41.924Z,24.83
2023-04-21T08:04:44.592Z,23.77
2023-04-21T08:09:47.347Z,27.15
2023-04-21T08:14:51.385Z,24.80
2023-04-21T08:19:54.036Z,22.70
2023-04-21T08:24:56.786Z,21.92
2023-04-21T08:30:01.177Z,19.33
2023-04-21T08:35:03.969Z,20.02
2023-04-21T08:40:08.295Z,23.92
2023-04-21T08:45:12.978Z,20.30
2023-04-21T08:50:15.870Z,24.30
2023-04-21T08:55:18.891Z,21.98
2023-04-21T09:00:23.147Z,25.92
2023-04-21T09:05:27.759Z,24.08
2023-04-21T09:10:31.101Z,24.10
2023-04-21T09:15:39.766Z,24.45
2023-04-21T09:20:43.896Z,22.73
2023-04-21T09:25:47.399Z,22.55
2023-04-21T09:30:57.356Z,21.95
2023-04-21T09:36:03.241Z,24.85
2023-04-21T09:41:06.420Z,23.65
2023-04-21T09:46:12.211Z,25.25
2023-04-21T09:56:25.469Z,23.52
2023-04-21T10:01:32.125Z,24.63
2023-04-21T10:06:36.339Z,20.73
2023-04-21T10:11:39.522Z,24.35
2023-04-21T10:16:43.919Z,20.55
2023-04-21T10:21:46.695Z,21.63
2023-04-21T10:26:54.566Z,24.80
2023-04-21T10:31:59.185Z,27.95
2023-04-21T10:37:17.437Z,22.75
2023-04-21T10:42:25.167Z,24.63
2023-04-21T10:47:30.501Z,21.33
2023-04-21T10:52:34.475Z,20.02
2023-04-21T10:57:37.939Z,20.90
2023-04-21T11:02:44.831Z,21.25
2023-04-21T11:07:47.776Z,20.60
2023-04-21T11:12:50.510Z,22.15
2023-04-21T11:17:55.650Z,24.23
2023-04-21T11:22:58.384Z,25.83
2023-04-21T11:28:01.067Z,32.10
2023-04-21T11:33:05.315Z,27.33
2023-04-21T11:38:07.962Z,22.80
2023-04-21T11:43:11.137Z,23.75
2023-04-21T11:53:23.316Z,23.73
2023-04-21T11:58:26.056Z,21.13
2023-04-21T12:03:30.399Z,20.92
2023-04-21T12:08:33.927Z,23.83
2023-04-21T12:13:36.633Z,23.55
2023-04-21T12:18:45.215Z,21.33
2023-04-21T12:23:47.974Z,17.58
2023-04-21T12:33:54.898Z,21.80
2023-04-21T12:38:57.573Z,17.33
2023-04-21T12:49:06.456Z,19.10
2023-04-21T12:54:09.088Z,17.60
2023-04-21T13:04:15.955Z,18.67
2023-04-21T13:09:18.937Z,19.73
2023-04-21T13:14:21.585Z,15.30
2023-04-21T13:19:25.805Z,19.45
2023-04-21T13:24:28.730Z,18.80
2023-04-21T13:29:34.193Z,23.75
2023-04-21T13:34:38.214Z,20.67
2023-04-21T13:39:40.990Z,18.45
2023-04-21T13:49:50.061Z,19.80
2023-04-21T13:54:54.074Z,17.75
2023-04-21T13:59:57.048Z,19.08
2023-04-21T14:05:01.319Z,18.67
2023-04-21T14:10:05.138Z,18.35
2023-04-21T14:15:08.975Z,18.40
2023-04-21T14:20:14.211Z,17.17
2023-04-21T14:25:17.024Z,18.35
2023-04-21T14:30:19.651Z,15.52
2023-04-21T14:35:23.661Z,17.88
2023-04-21T14:40:26.357Z,19.05
2023-04-21T14:45:30.318Z,18.67
2023-04-21T14:50:34.738Z,17.40
2023-04-21T14:55:37.782Z,19.10
2023-04-21T15:00:40.813Z,18.95
2023-04-21T15:05:46.470Z,17.20
2023-04-21T15:10:49.468Z,18.67
2023-04-21T15:21:01.762Z,19.77
2023-04-21T15:26:06.206Z,17.90
2023-04-21T15:31:10.295Z,18.45
2023-04-21T15:36:14.475Z,21.60
2023-04-21T15:41:17.659Z,19.55
2023-04-21T15:46:20.509Z,20.48
2023-04-21T15:51:24.688Z,20.20
2023-04-21T15:56:27.596Z,21.00
2023-04-21T16:01:31.020Z,22.60
2023-04-21T16:06:36.113Z,21.60
2023-04-21T16:11:38.948Z,19.48
2023-04-21T16:16:46.160Z,18.92
2023-04-21T16:21:50.376Z,20.08
2023-04-21T16:26:53.070Z,20.08
2023-04-21T16:31:57.859Z,21.05
2023-04-21T16:37:02.114Z,21.98
2023-04-21T16:42:06.697Z,21.63
2023-04-21T16:47:12.192Z,20.65
2023-04-21T16:52:16.414Z,18.33
2023-04-21T16:57:20.127Z,11.38
2023-04-21T17:02:23.440Z,12.70
2023-04-21T17:07:28.012Z,11.55
2023-04-21T17:12:34.084Z,12.98
2023-04-21T17:17:43.359Z,13.20
2023-04-21T17:22:48.005Z,10.88
2023-04-21T17:27:52.159Z,10.13
2023-04-21T17:33:08.407Z,14.25
2023-04-21T17:38:27.218Z,15.48
2023-04-21T17:43:29.890Z,11.85
2023-04-21T17:48:33.916Z,13.07
2023-04-21T17:54:03.032Z,12.65
2023-04-21T17:59:05.993Z,12.60
2023-04-21T18:09:13.840Z,14.32
2023-04-21T18:14:18.358Z,13.57
2023-04-21T18:19:22.274Z,12.38
2023-04-21T18:24:27.064Z,12.80
2023-04-21T18:29:59.694Z,13.10
2023-04-21T18:35:08.061Z,12.65
2023-04-21T18:40:13.867Z,13.27
2023-04-21T18:45:17.188Z,12.05
2023-04-21T18:50:23.458Z,12.98
2023-04-21T18:55:31.025Z,12.38
2023-04-21T19:00:39.560Z,15.52
2023-04-21T19:05:43.291Z,15.25
2023-04-21T19:10:48.105Z,19.92
2023-04-21T19:15:51.144Z,20.15
2023-04-21T19:20:58.037Z,24.17
2023-04-21T19:26:06.105Z,22.85
2023-04-21T19:31:09.722Z,20.70
2023-04-21T19:36:15.043Z,21.38
2023-04-21T19:41:22.201Z,22.58
2023-04-21T19:46:31.204Z,20.63
2023-04-21T19:51:34.766Z,23.33
2023-04-21T19:56:39.287Z,25.52
2023-04-21T20:01:42.583Z,25.13
2023-04-21T20:11:51.129Z,23.25
2023-04-21T20:16:54.237Z,67.18
2023-04-21T20:21:58.125Z,17.02
2023-04-21T20:27:21.167Z,12.15
2023-04-21T20:32:24.844Z,12.93
2023-04-21T20:37:28.190Z,10.82
2023-04-21T20:47:39.426Z,11.32
2023-04-21T20:52:46.241Z,10.18
2023-04-21T20:57:50.736Z,9.90
2023-04-21T21:02:54.878Z,9.18
2023-04-21T21:07:58.305Z,9.27
2023-04-21T21:18:26.654Z,15.57
2023-04-21T21:23:29.615Z,7.63
2023-04-21T21:28:32.604Z,6.00
2023-04-21T21:33:38.921Z,6.50
2023-04-21T21:38:43.063Z,7.03
2023-04-21T21:43:47.644Z,6.55
2023-04-21T21:48:51.732Z,6.82
2023-04-21T21:53:59.245Z,7.35
2023-04-21T21:59:03.020Z,6.47
2023-04-21T22:04:29.224Z,9.90
2023-04-21T22:09:34.871Z,9.45
2023-04-21T22:14:37.585Z,10.70
2023-04-21T22:19:43.154Z,11.23
2023-04-21T22:24:46.057Z,10.57
2023-04-21T22:29:48.903Z,11.60
2023-04-21T22:34:54.429Z,12.75
2023-04-21T22:39:58.839Z,12.02
2023-04-21T22:45:04.121Z,12.40
2023-04-21T22:50:10.486Z,12.52
2023-04-21T22:55:13.184Z,11.52
2023-04-21T23:00:37.797Z,11.87
2023-04-21T23:05:42.502Z,13.68
2023-04-21T23:10:48.882Z,14.07
2023-04-21T23:15:51.699Z,12.80
2023-04-21T23:21:21.852Z,14.67
2023-04-21T23:26:24.800Z,13.93
2023-04-21T23:31:30.667Z,14.43
2023-04-21T23:36:34.817Z,14.23
2023-04-21T23:41:37.646Z,15.30
2023-04-21T23:46:40.552Z,13.68
2023-04-21T23:51:44.946Z,20.67
2023-04-21T23:56:47.617Z,25.00
